メインページ
METAR-TAF:

METAR-TAF

空港 :

エドモントン国際空港

エドモントン, アルバータ州, カナダ

緯度: 53-18N, 経度: 113-35W, 海抜: 715m

現時点の気象観測

当レポートは46分前の09:00(UTC)に作成
南東の風 11kt
気温 8°C
湿度 71%
気圧 1014 hPa
視程: 24.1km
高度25000ftの雲は散在している

METAR: CYEG 200900Z 14011KT 15SM SCT250 08/03 A2993 RMK CI3 SLP143

時間: 03:46 (09:46 UTC)

予報

当レポートは1時間8分前の08:38(UTC)に作成
予報は20日の 09時(UTC)から 21日の 06時(UTC)まで有効
南/南東の風 10kt
視程: 10km
高度25000ftの雲はほとんどない
20日の 14時(UTC)から 20日の 16時(UTC)まで徐々に
南東の風 15kt、最大25ktの突風を伴う
20日の 2200時(UTC)から
南東の風 12kt
視程: 10km
高度7000ftの雲はほとんどない
高度25000ftの千切れ雲あり
21日の 0300時(UTC)から
東/北東の風 6kt
視程: 10km
高度25000ftの雲は散在している

TAF: CYEG 200838Z 2009/2106 15010KT P6SM FEW250 BECMG 2014/2016 14015G25KT FM202200 14012KT P6SM FEW070 BKN250 FM210300 07006KT P6SM SCT250 RMK NXT FCST BY 201200Z

4,000以上の空港の気象観測と天気予報(METAR報とTAF報)

利用可能な観測所は地図上に黄色い丸と赤い丸で示す。

丸の上にカーソルを重ねると観測所名を参照できる。

次にクリックすると気象観測と天気予報を参照できる。

マップの切り替え:黒色「×」印の緑ボタンをクリックして拡大、「-」印の緑ボタンをクリックして縮小、緑色の三角印をクリックして隣りの地図に切り替え


METAR-TAF: